createdAt,value
2023-03-20T00:02:00.396Z,97695.66
2023-03-20T00:04:27.137Z,97694.75
2023-03-20T00:06:53.738Z,97703.28
2023-03-20T00:09:20.420Z,97700.75
2023-03-20T00:11:51.377Z,97699.09
2023-03-20T00:14:20.234Z,97700.91
2023-03-20T00:16:48.883Z,97696.22
2023-03-20T00:19:18.656Z,97702.56
2023-03-20T00:21:47.611Z,97702.03
2023-03-20T00:24:15.881Z,97694.72
2023-03-20T00:26:44.155Z,97698.03
2023-03-20T00:29:30.872Z,97706.19
2023-03-20T00:31:58.429Z,97699.81
2023-03-20T00:34:29.024Z,97698.56
2023-03-20T00:36:56.417Z,97698.03
2023-03-20T00:39:23.790Z,97694.00
2023-03-20T00:41:54.418Z,97690.56
2023-03-20T00:44:35.696Z,97679.31
2023-03-20T00:47:13.524Z,97684.19
2023-03-20T00:49:40.394Z,97684.91
2023-03-20T00:52:09.053Z,97681.47
2023-03-20T00:54:36.251Z,97680.59
2023-03-20T00:57:06.916Z,97683.66
2023-03-20T00:59:37.528Z,97684.91
2023-03-20T01:02:05.109Z,97673.47
2023-03-20T01:04:36.411Z,97678.56
2023-03-20T01:07:03.479Z,97680.38
2023-03-20T01:09:30.092Z,97689.47
2023-03-20T01:11:56.937Z,97685.66
2023-03-20T01:14:23.953Z,97686.91
2023-03-20T01:16:50.699Z,97684.94
2023-03-20T01:19:17.808Z,97683.81
2023-03-20T01:21:44.585Z,97682.94
2023-03-20T01:24:11.261Z,97676.91
2023-03-20T01:26:43.239Z,97682.94
2023-03-20T01:29:24.627Z,97679.47
2023-03-20T01:31:52.777Z,97679.47
2023-03-20T01:34:21.018Z,97678.94
2023-03-20T01:36:57.162Z,97679.50
2023-03-20T01:39:31.852Z,97678.94
2023-03-20T01:41:59.511Z,97687.66
2023-03-20T01:44:34.170Z,97689.66
2023-03-20T01:47:03.382Z,97687.09
2023-03-20T01:49:57.448Z,97692.38
2023-03-20T01:52:24.171Z,97696.19
2023-03-20T01:54:50.899Z,97689.28
2023-03-20T01:57:24.610Z,97694.00
2023-03-20T02:00:01.696Z,97694.34
2023-03-20T02:02:31.447Z,97696.19
2023-03-20T02:05:06.320Z,97690.38
2023-03-20T02:07:35.796Z,97691.84
2023-03-20T02:10:05.773Z,97697.28
2023-03-20T02:12:34.733Z,97683.66
2023-03-20T02:15:01.705Z,97684.38
2023-03-20T02:17:28.594Z,97692.75
2023-03-20T02:20:26.151Z,97688.53
2023-03-20T02:23:31.201Z,97688.19
2023-03-20T02:26:24.237Z,97696.91
2023-03-20T02:29:20.128Z,97699.81
2023-03-20T02:32:29.849Z,97698.72
2023-03-20T02:35:48.368Z,97705.25
2023-03-20T02:38:58.453Z,97710.00
2023-03-20T02:41:43.805Z,97707.84
2023-03-20T02:44:27.832Z,97707.84
2023-03-20T02:47:10.330Z,97708.38
2023-03-20T02:50:06.358Z,97709.47
2023-03-20T02:53:18.074Z,97710.56
2023-03-20T02:56:25.127Z,97707.13
2023-03-20T02:59:02.657Z,97714.38
2023-03-20T03:01:39.686Z,97708.00
2023-03-20T03:04:14.352Z,97714.00
2023-03-20T03:06:46.068Z,97722.34
2023-03-20T03:09:35.878Z,97718.38
2023-03-20T03:12:07.985Z,97721.84
2023-03-20T03:14:43.757Z,97723.09
2023-03-20T03:17:13.403Z,97728.19
2023-03-20T03:19:46.393Z,97728.72
2023-03-20T03:22:13.009Z,97727.44
2023-03-20T03:24:45.281Z,97726.94
2023-03-20T03:27:37.756Z,97720.56
2023-03-20T03:30:18.539Z,97720.38
2023-03-20T03:32:49.574Z,97728.91
2023-03-20T03:35:22.023Z,97734.00
2023-03-20T03:38:19.192Z,97733.06
2023-03-20T03:41:31.260Z,97725.63
2023-03-20T03:44:23.117Z,97726.91
2023-03-20T03:46:57.790Z,97723.25
2023-03-20T03:49:29.226Z,97728.34
2023-03-20T03:52:01.339Z,97736.91
2023-03-20T03:54:36.768Z,97732.72
2023-03-20T03:57:05.970Z,97733.66
2023-03-20T03:59:42.376Z,97739.81
2023-03-20T04:02:10.583Z,97737.44
2023-03-20T04:04:42.638Z,97731.09
2023-03-20T04:07:09.315Z,97732.72
2023-03-20T04:09:35.995Z,97736.91
2023-03-20T04:12:02.884Z,97736.00
2023-03-20T04:14:29.511Z,97724.91
2023-03-20T04:16:56.170Z,97729.44
2023-03-20T04:19:22.796Z,97736.53
2023-03-20T04:21:49.451Z,97734.91
2023-03-20T04:24:16.336Z,97735.81
2023-03-20T04:26:43.265Z,97748.38
2023-03-20T04:29:10.407Z,97744.91
2023-03-20T04:31:37.123Z,97745.28
2023-03-20T04:34:03.842Z,97751.25
2023-03-20T04:36:30.434Z,97754.00
2023-03-20T04:38:57.754Z,97759.63
2023-03-20T04:41:24.439Z,97757.47
2023-03-20T04:43:51.061Z,97759.63
2023-03-20T04:46:17.797Z,97761.66
2023-03-20T04:48:44.416Z,97764.72
2023-03-20T04:51:11.332Z,97766.38
2023-03-20T04:53:38.482Z,97766.91
2023-03-20T04:56:05.751Z,97776.38
2023-03-20T04:58:32.416Z,97773.06
2023-03-20T05:00:59.072Z,97783.47
2023-03-20T05:03:27.575Z,97780.72
2023-03-20T05:05:54.217Z,97786.91
2023-03-20T05:08:21.136Z,97789.81
2023-03-20T05:10:47.792Z,97790.91
2023-03-20T05:13:14.429Z,97800.53
2023-03-20T05:15:41.087Z,97799.09
2023-03-20T05:18:08.204Z,97801.63
2023-03-20T05:20:34.839Z,97802.19
2023-03-20T05:23:01.467Z,97809.28
2023-03-20T05:25:28.149Z,97814.19
2023-03-20T05:27:55.018Z,97810.53
2023-03-20T05:30:21.688Z,97812.75
2023-03-20T05:32:52.743Z,97814.53
2023-03-20T05:35:19.981Z,97813.09
2023-03-20T05:37:46.647Z,97811.09
2023-03-20T05:40:15.931Z,97817.63
2023-03-20T05:42:42.575Z,97828.53
2023-03-20T05:45:09.798Z,97824.53
2023-03-20T05:47:36.422Z,97824.19
2023-03-20T05:50:04.354Z,97829.28
2023-03-20T05:52:31.180Z,97828.00
2023-03-20T05:54:57.830Z,97834.03
2023-03-20T05:57:24.592Z,97835.28
2023-03-20T05:59:51.386Z,97837.09
2023-03-20T06:02:18.077Z,97844.38
2023-03-20T06:04:44.784Z,97848.75
2023-03-20T06:07:12.864Z,97850.56
2023-03-20T06:09:39.521Z,97850.19
2023-03-20T06:12:06.817Z,97852.94
2023-03-20T06:14:33.525Z,97851.66
2023-03-20T06:17:00.855Z,97853.66
2023-03-20T06:19:27.520Z,97857.13
2023-03-20T06:21:54.213Z,97858.00
2023-03-20T06:24:20.984Z,97862.38
2023-03-20T06:26:47.625Z,97868.91
2023-03-20T06:29:14.469Z,97865.47
2023-03-20T06:31:42.431Z,97871.84
2023-03-20T06:34:09.083Z,97863.09
2023-03-20T06:36:35.808Z,97862.00
2023-03-20T06:39:03.412Z,97871.66
2023-03-20T06:41:34.522Z,97875.50
2023-03-20T06:44:02.579Z,97877.28
2023-03-20T06:46:29.231Z,97880.03
2023-03-20T06:48:55.940Z,97881.84
2023-03-20T06:51:22.764Z,97881.47
2023-03-20T06:53:49.426Z,97885.09
2023-03-20T06:56:16.903Z,97882.91
2023-03-20T06:58:43.623Z,97878.13
2023-03-20T07:01:15.845Z,97884.13
2023-03-20T07:03:42.761Z,97880.13
2023-03-20T07:06:09.785Z,97883.41
2023-03-20T07:08:36.884Z,97891.97
2023-03-20T07:11:04.311Z,97892.00
2023-03-20T07:13:32.620Z,97895.78
2023-03-20T07:16:04.983Z,97895.41
2023-03-20T07:18:32.429Z,97889.03
2023-03-20T07:21:05.225Z,97891.94
2023-03-20T07:23:34.421Z,97887.00
2023-03-20T07:26:01.241Z,97891.56
2023-03-20T07:28:27.999Z,97901.22
2023-03-20T07:30:55.696Z,97898.66
2023-03-20T07:33:22.363Z,97898.84
2023-03-20T07:35:53.803Z,97906.63
2023-03-20T07:38:21.399Z,97900.75
2023-03-20T07:40:49.006Z,97906.00
2023-03-20T07:43:16.720Z,97901.63
2023-03-20T07:45:43.680Z,97907.25
2023-03-20T07:48:10.513Z,97913.84
2023-03-20T07:50:37.282Z,97918.50
2023-03-20T07:53:03.917Z,97917.78
2023-03-20T07:55:30.692Z,97917.81
2023-03-20T07:57:57.336Z,97921.47
2023-03-20T08:00:25.578Z,97924.97
2023-03-20T08:02:53.525Z,97928.06
2023-03-20T08:05:20.467Z,97920.06
2023-03-20T08:07:47.125Z,97936.50
2023-03-20T08:10:14.112Z,97933.22
2023-03-20T08:12:40.752Z,97922.28
2023-03-20T08:15:08.297Z,97930.66
2023-03-20T08:17:34.960Z,97927.34
2023-03-20T08:20:01.810Z,97927.72
2023-03-20T08:22:28.460Z,97925.69
2023-03-20T08:24:55.133Z,97929.97
2023-03-20T08:27:21.862Z,97931.94
2023-03-20T08:29:48.536Z,97936.84
2023-03-20T08:32:15.188Z,97934.84
2023-03-20T08:34:41.957Z,97925.78
2023-03-20T08:37:08.595Z,97932.28
2023-03-20T08:39:35.860Z,97927.16
2023-03-20T08:42:02.510Z,97939.13
2023-03-20T08:44:29.276Z,97947.53
2023-03-20T08:46:56.539Z,97937.22
2023-03-20T08:49:23.245Z,97943.59
2023-03-20T08:51:49.962Z,97948.34
2023-03-20T08:54:18.582Z,97942.31
2023-03-20T08:56:46.076Z,97941.72
2023-03-20T08:59:12.868Z,97950.47
2023-03-20T09:01:49.397Z,97951.91
2023-03-20T09:04:17.138Z,97947.97
2023-03-20T09:06:43.856Z,97946.28
2023-03-20T09:09:10.674Z,97938.84
2023-03-20T09:11:37.592Z,97935.63
2023-03-20T09:14:04.210Z,97947.97
2023-03-20T09:16:31.032Z,97948.69
2023-03-20T09:18:57.791Z,97950.44
2023-03-20T09:21:24.455Z,97947.13
2023-03-20T09:23:51.068Z,97946.00
2023-03-20T09:26:17.828Z,97946.44
2023-03-20T09:28:44.449Z,97945.44
2023-03-20T09:31:12.072Z,97948.09
2023-03-20T09:33:38.930Z,97942.78
2023-03-20T09:36:07.905Z,97948.41
2023-03-20T09:38:34.625Z,97945.69
2023-03-20T09:41:02.930Z,97949.16
2023-03-20T09:43:55.091Z,97949.78
2023-03-20T09:47:19.753Z,97953.50
2023-03-20T09:50:35.425Z,97954.16
2023-03-20T09:53:13.561Z,97956.03
2023-03-20T09:55:42.973Z,97952.31
2023-03-20T09:58:14.107Z,97951.25
2023-03-20T10:00:44.210Z,97953.91
2023-03-20T10:03:42.148Z,97952.34
2023-03-20T10:06:16.920Z,97952.03
2023-03-20T10:08:44.110Z,97953.56
2023-03-20T10:15:09.049Z,97950.84
2023-03-20T10:21:05.608Z,97947.44
2023-03-20T10:23:41.138Z,97948.09
2023-03-20T10:26:17.939Z,97939.03
2023-03-20T10:29:07.983Z,97945.25
2023-03-20T10:32:04.570Z,97940.41
2023-03-20T10:35:17.723Z,97930.88
2023-03-20T10:43:57.191Z,97926.84
2023-03-20T10:46:29.700Z,97933.88
2023-03-20T10:49:01.859Z,97925.88
2023-03-20T10:51:46.380Z,97922.41
2023-03-20T10:54:24.082Z,97925.31
2023-03-20T10:56:55.879Z,97918.16
2023-03-20T10:59:27.582Z,97921.56
2023-03-20T11:01:54.815Z,97916.69
2023-03-20T11:04:21.762Z,97914.00
2023-03-20T11:07:15.238Z,97911.75
2023-03-20T11:09:41.814Z,97911.09
2023-03-20T11:12:18.056Z,97908.06
2023-03-20T11:14:44.741Z,97904.16
2023-03-20T11:17:12.260Z,97908.53
2023-03-20T11:19:41.675Z,97898.38
2023-03-20T11:22:26.326Z,97905.44
2023-03-20T11:24:56.326Z,97905.09
2023-03-20T11:27:31.530Z,97896.41
2023-03-20T11:30:00.239Z,97892.84
2023-03-20T11:32:47.615Z,97887.75
2023-03-20T11:35:44.889Z,97885.78
2023-03-20T11:38:21.140Z,97884.69
2023-03-20T11:40:49.448Z,97889.47
2023-03-20T11:43:24.741Z,97892.38
2023-03-20T11:45:57.002Z,97883.34
2023-03-20T11:48:37.304Z,97884.53
2023-03-20T11:51:12.367Z,97880.72
2023-03-20T11:53:41.882Z,97882.63
2023-03-20T11:56:20.749Z,97876.94
2023-03-20T11:59:24.106Z,97885.06
2023-03-20T12:01:53.724Z,97874.97
2023-03-20T12:04:27.799Z,97883.78
2023-03-20T12:07:00.999Z,97874.72
2023-03-20T12:09:58.223Z,97875.88
2023-03-20T12:12:41.177Z,97877.72
2023-03-20T12:15:37.058Z,97883.00
2023-03-20T12:18:15.648Z,97871.03
2023-03-20T12:20:54.694Z,97870.97
2023-03-20T12:24:01.301Z,97874.88
2023-03-20T12:26:45.234Z,97875.94
2023-03-20T12:29:38.149Z,97872.50
2023-03-20T12:32:14.789Z,97862.53
2023-03-20T12:34:46.956Z,97872.84
2023-03-20T12:37:18.216Z,97869.09
2023-03-20T12:39:53.582Z,97866.00
2023-03-20T12:43:02.208Z,97869.84
2023-03-20T12:45:38.118Z,97858.28
2023-03-20T12:48:18.320Z,97852.09
2023-03-20T12:51:00.473Z,97862.88
2023-03-20T12:53:43.526Z,97862.59
2023-03-20T12:56:56.532Z,97846.44
2023-03-20T13:00:16.505Z,97850.44
2023-03-20T13:03:01.772Z,97842.56
2023-03-20T13:06:06.823Z,97844.13
2023-03-20T13:09:08.706Z,97845.78
2023-03-20T13:12:08.198Z,97845.13
2023-03-20T13:15:24.229Z,97857.31
2023-03-20T13:18:30.195Z,97855.34
2023-03-20T13:21:00.751Z,97859.00
2023-03-20T13:23:46.448Z,97853.47
2023-03-20T13:26:49.278Z,97855.63
2023-03-20T13:29:47.171Z,97861.88
2023-03-20T13:32:27.444Z,97856.44
2023-03-20T13:35:34.745Z,97851.31
2023-03-20T13:38:09.749Z,97862.47
2023-03-20T13:40:43.982Z,97852.41
2023-03-20T13:43:19.086Z,97849.38
2023-03-20T13:45:46.421Z,97851.84
2023-03-20T13:48:45.589Z,97855.06
2023-03-20T13:51:38.686Z,97848.13
2023-03-20T13:54:23.644Z,97847.91
2023-03-20T13:57:28.850Z,97849.78
2023-03-20T14:00:21.760Z,97846.25
2023-03-20T14:03:11.476Z,97835.81
2023-03-20T14:05:41.062Z,97840.56
2023-03-20T14:08:33.795Z,97841.06
2023-03-20T14:11:35.279Z,97837.59
2023-03-20T14:14:27.617Z,97836.31
2023-03-20T14:17:22.439Z,97841.38
2023-03-20T14:19:50.798Z,97837.91
2023-03-20T14:22:30.459Z,97834.84
2023-03-20T14:25:00.319Z,97831.75
2023-03-20T14:27:43.455Z,97836.66
2023-03-20T14:30:32.352Z,97829.59
2023-03-20T14:33:26.898Z,97833.00
2023-03-20T14:36:45.006Z,97827.34
2023-03-20T14:39:53.005Z,97821.41
2023-03-20T14:42:57.185Z,97825.84
2023-03-20T14:45:38.000Z,97826.13
2023-03-20T14:48:17.739Z,97821.25
2023-03-20T14:51:03.042Z,97824.16
2023-03-20T14:53:32.825Z,97825.16
2023-03-20T14:56:08.137Z,97818.53
2023-03-20T14:59:00.293Z,97825.47
2023-03-20T15:02:12.943Z,97819.81
2023-03-20T15:04:42.121Z,97823.59
2023-03-20T15:07:20.704Z,97820.41
2023-03-20T15:09:51.014Z,97822.50
2023-03-20T15:12:23.566Z,97824.88
2023-03-20T15:14:58.304Z,97821.03
2023-03-20T15:17:36.379Z,97820.16
2023-03-20T15:20:29.378Z,97811.66
2023-03-20T15:23:01.038Z,97816.28
2023-03-20T15:25:39.809Z,97814.91
2023-03-20T15:28:07.987Z,97813.00
2023-03-20T15:30:38.968Z,97816.34
2023-03-20T15:33:08.252Z,97807.81
2023-03-20T15:35:35.018Z,97803.34
2023-03-20T15:38:07.528Z,97812.75
2023-03-20T15:40:50.568Z,97809.09
2023-03-20T15:43:20.073Z,97801.91
2023-03-20T15:45:46.861Z,97800.34
2023-03-20T15:48:18.895Z,97802.91
2023-03-20T15:50:54.850Z,97802.94
2023-03-20T15:53:29.170Z,97803.81
2023-03-20T15:56:19.241Z,97805.72
2023-03-20T15:58:49.513Z,97808.88
2023-03-20T16:01:19.248Z,97813.06
2023-03-20T16:03:46.439Z,97808.56
2023-03-20T16:06:16.521Z,97810.25
2023-03-20T16:08:45.700Z,97809.41
2023-03-20T16:11:15.513Z,97810.22
2023-03-20T16:13:47.102Z,97809.31
2023-03-20T16:16:17.538Z,97811.38
2023-03-20T16:18:48.306Z,97805.00
2023-03-20T16:21:54.544Z,97800.94
2023-03-20T16:24:28.139Z,97801.09
2023-03-20T16:26:55.518Z,97801.06
2023-03-20T16:29:24.276Z,97805.97
2023-03-20T16:31:58.573Z,97807.25
2023-03-20T16:34:33.560Z,97802.22
2023-03-20T16:37:06.035Z,97803.09
2023-03-20T16:39:32.593Z,97808.41
2023-03-20T16:42:20.607Z,97805.84
2023-03-20T16:44:47.424Z,97804.06
2023-03-20T16:47:32.990Z,97803.25
2023-03-20T16:50:30.699Z,97806.38
2023-03-20T16:52:59.535Z,97809.38
2023-03-20T16:55:32.006Z,97810.66
2023-03-20T16:58:00.635Z,97807.25
2023-03-20T17:00:33.061Z,97813.72
2023-03-20T17:03:15.234Z,97815.31
2023-03-20T17:05:53.577Z,97809.81
2023-03-20T17:08:29.936Z,97817.94
2023-03-20T17:10:59.944Z,97818.91
2023-03-20T17:13:26.805Z,97823.47
2023-03-20T17:15:54.480Z,97817.84
2023-03-20T17:18:21.180Z,97814.63
2023-03-20T17:20:47.826Z,97820.50
2023-03-20T17:23:19.369Z,97821.94
2023-03-20T17:25:46.246Z,97819.44
2023-03-20T17:28:20.530Z,97823.28
2023-03-20T17:30:49.135Z,97820.88
2023-03-20T17:33:17.183Z,97815.41
2023-03-20T17:35:44.066Z,97821.44
2023-03-20T17:38:16.978Z,97823.63
2023-03-20T17:40:44.743Z,97827.25
2023-03-20T17:43:13.107Z,97823.47
2023-03-20T17:45:40.797Z,97828.38
2023-03-20T17:48:15.685Z,97824.19
2023-03-20T17:50:44.578Z,97822.72
2023-03-20T17:53:16.721Z,97824.56
2023-03-20T17:55:43.497Z,97826.94
2023-03-20T17:58:15.016Z,97824.56
2023-03-20T18:00:41.717Z,97814.97
2023-03-20T18:03:08.347Z,97818.81
2023-03-20T18:05:39.373Z,97825.56
2023-03-20T18:08:12.587Z,97828.69
2023-03-20T18:10:39.484Z,97823.78
2023-03-20T18:13:06.323Z,97820.78
2023-03-20T18:15:32.978Z,97832.50
2023-03-20T18:17:59.572Z,97827.78
2023-03-20T18:20:32.194Z,97828.19
2023-03-20T18:22:58.736Z,97829.06
2023-03-20T18:25:26.056Z,97833.31
2023-03-20T18:27:53.553Z,97829.00
2023-03-20T18:30:23.342Z,97831.00
2023-03-20T18:32:50.485Z,97833.97
2023-03-20T18:35:17.664Z,97832.34
2023-03-20T18:37:44.606Z,97840.91
2023-03-20T18:40:21.613Z,97838.53
2023-03-20T18:42:48.399Z,97836.72
2023-03-20T18:45:15.335Z,97842.94
2023-03-20T18:47:41.943Z,97852.78
2023-03-20T18:50:29.247Z,97845.13
2023-03-20T18:52:57.266Z,97836.41
2023-03-20T18:55:26.164Z,97840.44
2023-03-20T18:57:53.040Z,97849.94
2023-03-20T19:00:21.309Z,97849.19
2023-03-20T19:02:49.667Z,97843.72
2023-03-20T19:05:18.218Z,97840.63
2023-03-20T19:07:48.466Z,97848.13
2023-03-20T19:10:43.866Z,97849.06
2023-03-20T19:13:15.909Z,97849.25
2023-03-20T19:15:43.601Z,97847.97
2023-03-20T19:18:27.075Z,97839.41
2023-03-20T19:20:56.063Z,97841.44
2023-03-20T19:23:24.927Z,97849.44
2023-03-20T19:25:57.444Z,97837.78
2023-03-20T19:28:39.194Z,97842.34
2023-03-20T19:31:08.279Z,97851.06
2023-03-20T19:33:35.450Z,97849.09
2023-03-20T19:36:04.324Z,97853.84
2023-03-20T19:38:32.139Z,97843.47
2023-03-20T19:40:59.814Z,97846.94
2023-03-20T19:43:28.805Z,97850.19
2023-03-20T19:45:58.752Z,97850.19
2023-03-20T19:48:50.448Z,97850.00
2023-03-20T19:51:26.412Z,97845.66
2023-03-20T19:53:54.067Z,97845.28
2023-03-20T19:56:23.083Z,97848.94
2023-03-20T19:58:50.746Z,97845.47
2023-03-20T20:01:23.309Z,97844.00
2023-03-20T20:03:51.096Z,97843.47
2023-03-20T20:06:20.153Z,97845.47
2023-03-20T20:08:49.583Z,97844.91
2023-03-20T20:11:20.962Z,97840.91
2023-03-20T20:16:35.944Z,97846.53
2023-03-20T20:19:02.792Z,97848.69
2023-03-20T20:24:18.816Z,97837.94
2023-03-20T20:27:03.406Z,97841.75
2023-03-20T20:29:34.135Z,97834.28
2023-03-20T20:32:00.936Z,97838.09
2023-03-20T20:40:02.006Z,97838.72
2023-03-20T20:42:28.646Z,97837.97
2023-03-20T20:44:55.487Z,97837.25
2023-03-20T20:47:22.193Z,97839.25
2023-03-20T20:49:49.195Z,97836.34
2023-03-20T20:52:16.120Z,97834.72
2023-03-20T20:54:42.822Z,97841.44
2023-03-20T20:57:10.899Z,97836.03
2023-03-20T20:59:38.221Z,97839.09
2023-03-20T21:02:12.040Z,97840.19
2023-03-20T21:04:42.633Z,97841.44
2023-03-20T21:07:13.455Z,97835.97
2023-03-20T21:09:40.871Z,97838.88
2023-03-20T21:12:10.415Z,97837.97
2023-03-20T21:14:37.865Z,97835.66
2023-03-20T21:17:06.035Z,97844.34
2023-03-20T21:19:38.729Z,97840.34
2023-03-20T21:22:05.779Z,97843.63
2023-03-20T21:24:34.678Z,97842.19
2023-03-20T21:27:08.074Z,97840.72
2023-03-20T21:29:34.824Z,97842.72
2023-03-20T21:32:01.657Z,97838.53
2023-03-20T21:34:29.148Z,97838.88
2023-03-20T21:36:57.428Z,97834.47
2023-03-20T21:39:24.643Z,97825.22
2023-03-20T21:41:51.306Z,97832.81
2023-03-20T21:44:24.648Z,97836.09
2023-03-20T21:50:42.146Z,97843.69
2023-03-20T21:53:13.442Z,97842.81
2023-03-20T22:01:39.628Z,97840.34
2023-03-20T22:07:24.184Z,97838.72
2023-03-20T22:15:34.095Z,97840.34
2023-03-20T22:32:27.829Z,97840.56
2023-03-20T22:35:15.782Z,97832.72
2023-03-20T22:43:31.831Z,97838.16
2023-03-20T22:45:38.411Z,97839.28
2023-03-20T22:48:10.842Z,97835.84
2023-03-20T22:50:38.871Z,97829.25
2023-03-20T22:53:06.109Z,97825.63
2023-03-20T22:55:32.797Z,97822.19
2023-03-20T22:58:06.887Z,97826.56
2023-03-20T23:00:35.747Z,97828.00
2023-03-20T23:03:15.610Z,97822.03
2023-03-20T23:05:47.240Z,97822.41
2023-03-20T23:08:13.897Z,97819.84
2023-03-20T23:10:45.950Z,97826.38
2023-03-20T23:13:13.244Z,97824.59
2023-03-20T23:15:39.893Z,97816.41
2023-03-20T23:18:06.676Z,97821.13
2023-03-20T23:20:33.503Z,97827.72
2023-03-20T23:23:00.255Z,97816.75
2023-03-20T23:25:38.321Z,97821.69
2023-03-20T23:28:07.332Z,97818.97
2023-03-20T23:30:44.257Z,97813.50
2023-03-20T23:33:15.000Z,97818.22
2023-03-20T23:35:41.714Z,97813.13
2023-03-20T23:38:08.407Z,97816.38
2023-03-20T23:40:35.610Z,97820.00
2023-03-20T23:43:02.399Z,97818.00
2023-03-20T23:45:29.000Z,97817.78
2023-03-20T23:47:55.753Z,97815.44
2023-03-20T23:50:42.612Z,97812.91
2023-03-20T23:53:19.915Z,97811.50
2023-03-20T23:55:49.880Z,97818.03
2023-03-20T23:58:16.930Z,97810.84
